Industry, Texas
Current Conditions -  °F | °C
As of 1:35 PM on Thursday 27 Nov 2014 (Local Time) from K11R Reporting Station
Clear Clear  
Wind Chill: 64°   Ceiling: Unl
Heat Index: 64°   Visibility: 10mi
Dew Point: 28°   Wind: 3mph
Humidity: 25%   Direction: 350°N
Pressure: 30.45"   Gusts: NA
Location:  29.97°N, 96.5°W
Report Text: K11R 271935Z AUTO 35003KT 10SM CLR 18/M02 A3045 RMK AO2 T01781025
Loading
Personal Weather Stations






























Interactive Weather Map New forecast layout! Learn more

10-Day Weather Forecast

Advertisements
Track Severe Weather on mobile